< < Back
Terminal Aerodrome Forecast


Current Version              Previous Versions:   1  2  3  4  5  6  7  8  9  

Terminal Aerodrome Forecast

044
FTUS44 KBMX 241739
TAFTCL
TAF
KTCL 241739Z 2418/2518 25009KT P6SM SCT045
     FM250100 28002KT P6SM SCT250
     FM251400 35006KT P6SM SCT045=



Latest METAR

292
SAUS70 KWBC 242300 RRE
MTRTCL
METAR KTCL 242253Z 26003KT 10SM CLR 33/21 A3001 RMK AO2 SLP159
T03330211


USA.gov is the U.S. government's official web portal to all federal, state and local government web resources and services.